首页
METAR-TAF:

METAR-TAF

机场 :

Griffiss_Air_Force_Base

羅馬, 紐約州, 美国

纬度: 43-14N, 经度: 075-24W, 海拔: 154米

当前天气观测

该预报发布于26分钟前的23:23 UTC
静风
温度 -7°C
湿度 79%
气压 1030 hPa
能見度: 16.1公里
多云层高于2900英尺
阴天层高于3400英尺

METAR: KRME 212323Z 00000KT 10SM BKN029 OVC034 M07/M10 A3043 RMK AO2 T10721100

时间: 18:49 (23:49 UTC)

预报

该预报发布于25分钟前的23:24 UTC
预报有效从22日的 00点(UTC)到 22日的 24点(UTC)
风速4节,风向西
能見度: 10公里
多云层高于3500英尺
短暂存在
从 22日的 00点(UTC)到 22日的 03点(UTC)
多云层高于2500英尺
从 22日的 0900点(UTC)
风速4节,风向多变
能見度: 10公里
阴天层高于2500英尺
从 22日的 1500点(UTC)
风速4节,风向东南
能見度: 10公里
散云层高于2500英尺
多云层高于20000英尺

TAF: KRME 212324Z 2200/2224 27004KT P6SM BKN035 TEMPO 2200/2203 BKN025 FM220900 VRB04KT P6SM OVC025 FM221500 13004KT P6SM SCT025 BKN200

超过4000个机场的气象观测和天气预报(METAR&TAF报告)。

可查询的气象台以黄色和红色小点在地图上表示。

将鼠标移到小点上方,可查看气象台名称。

然后点击查看天气观测和预报。

如需切换地图:点击带黑十字的绿色按钮放大地图;点击带横线的绿色按钮缩小地图;或者点击绿色箭头查看邻近地区的地图。


METAR-TAF: